Pagrindinis puslapis
METAR-TAF:

METAR-TAF

Oro uostai :

Pago Pago, United States Minor Outlying Islands

platuma: 14-20S, ilguma: 170-43W, Aukštis: 3 m

Dabartinis oras

Ataskaita buvo paskelbta 46 minutes, ne 20:50 UTC
Vėjas 21 kt iš Šiaurės su gūsio iki 31 kt
Temperatūra 27°C
Drėgmė 79%
Slėgis 1007 hPa
Matomumas: 16.1 km
Mažai debesys ne aukštis 1900 ft
Išsisklaidę debesys ne aukštis 13000 ft
Apsiniaukę ne aukštis 23000 ft

METAR: NSTU 102050Z 35021G31KT 10SM FEW019 SCT130 OVC230 27/23 A2974 RMK SLP071 60000 8/128 T02670229 56030

Laikas: 10:36 (21:36 UTC)

Prognozė

Ataskaita buvo paskelbta 32 minutes, ne 21:04 UTC
Prognozė galioja nuo 10 metu 21 UTC su 11 metu 18 UTC
Vėjas 15 kt iš Šiaurės/Šiaurės Vakarų su gūsio iki 25 kt
Matomumas: 10 km
Išsisklaidę debesys ne aukštis 1800 ft
Išsisklaidę debesys ne aukštis 3500 ft
Apsiniaukę ne aukštis 20000 ft
Liūtis kaimynystėje

TAF: NSTU 102104Z 1021/1118 34015G25KT P6SM VCSH SCT018 SCT035 OVC200

Orai ataskaitas ir orų prognozės (METAR, TAF).

turimą stotys yra geltonos ir raudonos taškus žemėlapyje.

Perkelti pele per norėdami pamatyti stoties vardą.

Tada spustelėkite, norėdami matyti oro stebėjimo ir prognozės.

Norėdami pakeisti žemėlapį: spustelėkite ant žalios mygtukų su juodo kryžiaus žemyn,; žalią mygtuką su brūkšneliu, jei norite nutolinti; arba žalių rodyklių gretimoms žemėlapius.


METAR-TAF: